Bentonville (XNA/KXNA)

Map

Destinations

Information

Location
Bentonville, AR
Local Time
17:30 / 5:30 pm
GMT Time
23:30 / 11:30 pm
Gates
Unassigned
No FAA reported delays
METAR KXNA 182253Z 20009KT 10SM CLR 04/M12 A3023 RMK AO2 SLP248 T00391117
TAF KXNA 181721Z 1818/1918 22014KT P6SM SKC FM190000 20005KT P6SM SKC